Mary Ann — WCY5683 — position and weather

sailwx.info

Track history (hours):
 
Tides and Currents Weather Stations Pressure Air Temp Water Temp Dewpoint Dewpoint Depression Visibility Wind Speed Wind Dir Waves Ship Positions

Mary Ann

Owner: GETZ, TIMOTHY M, SEAVILLE, NJ. More information available from US FCC via Universal Licensing System and Coast Guard Vessel Documentation Center.

Last reported at 2017-Feb-17 09:33 UTC. Time now 2017-Feb-22 15:23 UTC.
Position N 34°39' W 076°40'.

Length 22 m.

Type: Fishing. MMSI: 338382000.

Date/timePositionNaut miles runAvg speedWind from/ knotsBaromVisibWave heightAir tempDewpointWater temp
2017-Feb-17 09:33N 34°39' W 076°40'5 4.4
2017-Feb-17 08:30N 34°43' W 076°40'0 0.0
2017-Feb-17 07:30N 34°43' W 076°40'0 0.0
2017-Feb-17 06:30N 34°43' W 076°40'0 0.0
2017-Feb-17 05:33N 34°43' W 076°40'0 0.0
2017-Feb-17 04:33N 34°43' W 076°40'0 0.0
2017-Feb-17 03:33N 34°43' W 076°40'0 0.0
2017-Feb-17 02:30N 34°43' W 076°40'0 0.0
2017-Feb-17 01:30N 34°43' W 076°40'0 0.0
2017-Feb-17 00:33N 34°43' W 076°40'0 0.0
2017-Feb-16 23:33N 34°43' W 076°40'0 0.0
2017-Feb-16 22:34N 34°43' W 076°40'0 0.0
2017-Feb-16 21:33N 34°43' W 076°40'0 0.0
2017-Feb-16 20:33N 34°43' W 076°40'0 0.0
2017-Feb-16 19:33N 34°43' W 076°40'0 0.0
2017-Feb-16 18:33N 34°43' W 076°40'0 0.0
2017-Feb-16 17:33N 34°43' W 076°40'0 0.0
2017-Feb-16 16:33N 34°43' W 076°40'0 0.0
2017-Feb-16 15:33N 34°43' W 076°40'0 0.0
2017-Feb-16 14:33N 34°43' W 076°40'0 0.0
2017-Feb-16 13:33N 34°43' W 076°40'0 0.0
2017-Feb-16 12:33N 34°43' W 076°40'0 0.0
2017-Feb-16 11:33N 34°43' W 076°40'0 0.0
2017-Feb-16 10:33N 34°43' W 076°40'0 0.0
2017-Feb-16 09:33N 34°43' W 076°40'0 0.0
2017-Feb-16 08:33N 34°43' W 076°40'0 0.0
2017-Feb-16 07:33N 34°43' W 076°40'0 0.0
2017-Feb-16 06:33N 34°43' W 076°40'0 0.0
2017-Feb-16 05:33N 34°43' W 076°40'0 0.0
2017-Feb-16 04:33N 34°43' W 076°40'0 0.0
2017-Feb-16 03:33N 34°43' W 076°40'0 0.0
2017-Feb-16 02:33N 34°43' W 076°40'0 0.0
2017-Feb-16 01:33N 34°43' W 076°40'0 0.0
2017-Feb-16 00:33N 34°43' W 076°40'0 0.0
2017-Feb-15 23:33N 34°43' W 076°40'0 0.0
2017-Feb-15 22:33N 34°43' W 076°40'0 0.0
2017-Feb-15 21:33N 34°43' W 076°40'0 0.0
2017-Feb-15 20:33N 34°43' W 076°40'0 0.0
2017-Feb-15 19:33N 34°43' W 076°40'0 0.0
2017-Feb-15 18:28N 34°43' W 076°40'0 0.0
2017-Feb-15 17:33N 34°43' W 076°40'0 0.0
2017-Feb-15 16:33N 34°43' W 076°40'0 0.0
2017-Feb-15 15:33N 34°43' W 076°40'0 0.1
2017-Feb-15 14:33N 34°43' W 076°40'0 0.0
2017-Feb-15 13:33N 34°43' W 076°40'0 0.1
2017-Feb-15 12:32N 34°43' W 076°40'0 0.0
2017-Feb-15 11:32N 34°43' W 076°40'2 2.0
2017-Feb-15 10:33N 34°42' W 076°40'4 3.9
2017-Feb-15 09:27N 34°37' W 076°40'0 0.4
2017-Feb-15 08:19N 34°37' W 076°40'5 6.5
2017-Feb-15 07:30N 34°33' W 076°35'  
2017-Feb-10 14:32N 34°37' W 076°38'7 6.7
2017-Feb-10 13:33N 34°43' W 076°40'0 0.2
2017-Feb-10 12:31N 34°43' W 076°40'0 0.0
2017-Feb-10 11:31N 34°43' W 076°40'0 0.0
2017-Feb-10 10:31N 34°43' W 076°40'0 0.0
2017-Feb-10 09:31N 34°43' W 076°40'0 0.0
2017-Feb-10 08:31N 34°43' W 076°40'0 0.0
2017-Feb-10 07:31N 34°43' W 076°40'0 0.0
2017-Feb-10 06:31N 34°43' W 076°40'0 0.0
2017-Feb-10 05:31N 34°43' W 076°40'0 0.0
2017-Feb-10 04:31N 34°43' W 076°40'0 0.0
2017-Feb-10 03:31N 34°43' W 076°40'0 0.0
2017-Feb-10 02:31N 34°43' W 076°40'0 0.0
2017-Feb-10 01:31N 34°43' W 076°40'0 0.0
2017-Feb-10 00:31N 34°43' W 076°40'0 0.0
2017-Feb-09 23:31N 34°43' W 076°40'0 0.0
2017-Feb-09 22:31N 34°43' W 076°40'0 0.0
2017-Feb-09 21:31N 34°43' W 076°40'0 0.0
2017-Feb-09 20:31N 34°43' W 076°40'0 0.0
2017-Feb-09 19:31N 34°43' W 076°40'0 0.0
2017-Feb-09 18:31N 34°43' W 076°40'0 0.0
2017-Feb-09 17:31N 34°43' W 076°40'0 0.0
2017-Feb-09 16:31N 34°43' W 076°40'0 0.0
2017-Feb-09 15:31N 34°43' W 076°40'0 0.0
2017-Feb-09 14:31N 34°43' W 076°40'0 0.0
2017-Feb-09 13:31N 34°43' W 076°40'0 0.0
2017-Feb-09 12:31N 34°43' W 076°40'0 0.0
2017-Feb-09 11:31N 34°43' W 076°40'0 0.0
2017-Feb-09 10:31N 34°43' W 076°40'0 0.0
2017-Feb-09 09:31N 34°43' W 076°40'0 0.0
2017-Feb-09 08:31N 34°43' W 076°40'0 0.0
2017-Feb-09 07:31N 34°43' W 076°40'0 0.0
2017-Feb-09 06:19N 34°43' W 076°40'0 0.0
2017-Feb-09 05:31N 34°43' W 076°40'0 0.0
2017-Feb-09 04:31N 34°43' W 076°40'0 0.0
2017-Feb-09 03:31N 34°43' W 076°40'0 0.0
2017-Feb-09 02:31N 34°43' W 076°40'0 0.0
2017-Feb-09 01:31N 34°43' W 076°40'0 0.0
2017-Feb-09 00:31N 34°43' W 076°40'0 0.0
2017-Feb-08 23:31N 34°43' W 076°40'0 0.0
2017-Feb-08 22:31N 34°43' W 076°40'0 0.0
2017-Feb-08 21:31N 34°43' W 076°40'0 0.0
2017-Feb-08 20:31N 34°43' W 076°40'0 0.0
2017-Feb-08 19:31N 34°43' W 076°40'0 0.0
2017-Feb-08 18:31N 34°43' W 076°40'0 0.0
2017-Feb-08 17:31N 34°43' W 076°40'0 0.0
2017-Feb-08 16:31N 34°43' W 076°40'0 0.0
2017-Feb-08 15:31N 34°43' W 076°40'0 0.0
2017-Feb-08 14:31N 34°43' W 076°40'0 0.1
2017-Feb-08 13:31N 34°43' W 076°40'0 0.0
2017-Feb-08 12:31N 34°43' W 076°40'0 0.1
2017-Feb-08 11:31N 34°43' W 076°40'0 0.0
2017-Feb-08 10:31N 34°43' W 076°40'0 0.0
2017-Feb-08 09:31N 34°43' W 076°40'0 0.0
2017-Feb-08 08:31N 34°43' W 076°40'0 0.0
2017-Feb-08 07:31N 34°43' W 076°40'0 0.0
2017-Feb-08 06:31N 34°43' W 076°40'0 0.0
2017-Feb-08 05:28N 34°43' W 076°40'0 0.0
2017-Feb-08 04:31N 34°43' W 076°40'0 0.0
2017-Feb-08 03:31N 34°43' W 076°40'0 0.0
2017-Feb-08 02:31N 34°43' W 076°40'3 2.7
2017-Feb-08 01:33N 34°41' W 076°40'7 6.7
2017-Feb-08 00:33N 34°34' W 076°42'  
Track history (hours):
 
Tides and Currents Weather Stations Pressure Air Temp Water Temp Dewpoint Dewpoint Depression Visibility Wind Speed Wind Dir Waves Ship Positions

Mary Ann

Owner: GETZ, TIMOTHY M, SEAVILLE, NJ. More information available from US FCC via Universal Licensing System and Coast Guard Vessel Documentation Center.

Last reported at 2017-Feb-17 09:33 UTC. Time now 2017-Feb-22 15:23 UTC.
Position N 34°39' W 076°40'.

Length 22 m.

Type: Fishing. MMSI: 338382000.

Date/timePositionNaut miles runAvg speedWind from/ knotsBaromVisibWave heightAir tempDewpointWater temp
2017-Feb-17 09:33N 34°39' W 076°40'5 4.4
2017-Feb-17 08:30N 34°43' W 076°40'0 0.0
2017-Feb-17 07:30N 34°43' W 076°40'0 0.0
2017-Feb-17 06:30N 34°43' W 076°40'0 0.0
2017-Feb-17 05:33N 34°43' W 076°40'0 0.0
2017-Feb-17 04:33N 34°43' W 076°40'0 0.0
2017-Feb-17 03:33N 34°43' W 076°40'0 0.0
2017-Feb-17 02:30N 34°43' W 076°40'0 0.0
2017-Feb-17 01:30N 34°43' W 076°40'0 0.0
2017-Feb-17 00:33N 34°43' W 076°40'0 0.0
2017-Feb-16 23:33N 34°43' W 076°40'0 0.0
2017-Feb-16 22:34N 34°43' W 076°40'0 0.0
2017-Feb-16 21:33N 34°43' W 076°40'0 0.0
2017-Feb-16 20:33N 34°43' W 076°40'0 0.0
2017-Feb-16 19:33N 34°43' W 076°40'0 0.0
2017-Feb-16 18:33N 34°43' W 076°40'0 0.0
2017-Feb-16 17:33N 34°43' W 076°40'0 0.0
2017-Feb-16 16:33N 34°43' W 076°40'0 0.0
2017-Feb-16 15:33N 34°43' W 076°40'0 0.0
2017-Feb-16 14:33N 34°43' W 076°40'0 0.0
2017-Feb-16 13:33N 34°43' W 076°40'0 0.0
2017-Feb-16 12:33N 34°43' W 076°40'0 0.0
2017-Feb-16 11:33N 34°43' W 076°40'0 0.0
2017-Feb-16 10:33N 34°43' W 076°40'0 0.0
2017-Feb-16 09:33N 34°43' W 076°40'0 0.0
2017-Feb-16 08:33N 34°43' W 076°40'0 0.0
2017-Feb-16 07:33N 34°43' W 076°40'0 0.0
2017-Feb-16 06:33N 34°43' W 076°40'0 0.0
2017-Feb-16 05:33N 34°43' W 076°40'0 0.0
2017-Feb-16 04:33N 34°43' W 076°40'0 0.0
2017-Feb-16 03:33N 34°43' W 076°40'0 0.0
2017-Feb-16 02:33N 34°43' W 076°40'0 0.0
2017-Feb-16 01:33N 34°43' W 076°40'0 0.0
2017-Feb-16 00:33N 34°43' W 076°40'0 0.0
2017-Feb-15 23:33N 34°43' W 076°40'0 0.0
2017-Feb-15 22:33N 34°43' W 076°40'0 0.0
2017-Feb-15 21:33N 34°43' W 076°40'0 0.0
2017-Feb-15 20:33N 34°43' W 076°40'0 0.0
2017-Feb-15 19:33N 34°43' W 076°40'0 0.0
2017-Feb-15 18:28N 34°43' W 076°40'0 0.0
2017-Feb-15 17:33N 34°43' W 076°40'0 0.0
2017-Feb-15 16:33N 34°43' W 076°40'0 0.0
2017-Feb-15 15:33N 34°43' W 076°40'0 0.1
2017-Feb-15 14:33N 34°43' W 076°40'0 0.0
2017-Feb-15 13:33N 34°43' W 076°40'0 0.1
2017-Feb-15 12:32N 34°43' W 076°40'0 0.0
2017-Feb-15 11:32N 34°43' W 076°40'2 2.0
2017-Feb-15 10:33N 34°42' W 076°40'4 3.9
2017-Feb-15 09:27N 34°37' W 076°40'0 0.4
2017-Feb-15 08:19N 34°37' W 076°40'5 6.5
2017-Feb-15 07:30N 34°33' W 076°35'  
2017-Feb-10 14:32N 34°37' W 076°38'7 6.7
2017-Feb-10 13:33N 34°43' W 076°40'0 0.2
2017-Feb-10 12:31N 34°43' W 076°40'0 0.0
2017-Feb-10 11:31N 34°43' W 076°40'0 0.0
2017-Feb-10 10:31N 34°43' W 076°40'0 0.0
2017-Feb-10 09:31N 34°43' W 076°40'0 0.0
2017-Feb-10 08:31N 34°43' W 076°40'0 0.0
2017-Feb-10 07:31N 34°43' W 076°40'0 0.0
2017-Feb-10 06:31N 34°43' W 076°40'0 0.0
2017-Feb-10 05:31N 34°43' W 076°40'0 0.0
2017-Feb-10 04:31N 34°43' W 076°40'0 0.0
2017-Feb-10 03:31N 34°43' W 076°40'0 0.0
2017-Feb-10 02:31N 34°43' W 076°40'0 0.0
2017-Feb-10 01:31N 34°43' W 076°40'0 0.0
2017-Feb-10 00:31N 34°43' W 076°40'0 0.0
2017-Feb-09 23:31N 34°43' W 076°40'0 0.0
2017-Feb-09 22:31N 34°43' W 076°40'0 0.0
2017-Feb-09 21:31N 34°43' W 076°40'0 0.0
2017-Feb-09 20:31N 34°43' W 076°40'0 0.0
2017-Feb-09 19:31N 34°43' W 076°40'0 0.0
2017-Feb-09 18:31N 34°43' W 076°40'0 0.0
2017-Feb-09 17:31N 34°43' W 076°40'0 0.0
2017-Feb-09 16:31N 34°43' W 076°40'0 0.0
2017-Feb-09 15:31N 34°43' W 076°40'0 0.0
2017-Feb-09 14:31N 34°43' W 076°40'0 0.0
2017-Feb-09 13:31N 34°43' W 076°40'0 0.0
2017-Feb-09 12:31N 34°43' W 076°40'0 0.0
2017-Feb-09 11:31N 34°43' W 076°40'0 0.0
2017-Feb-09 10:31N 34°43' W 076°40'0 0.0
2017-Feb-09 09:31N 34°43' W 076°40'0 0.0
2017-Feb-09 08:31N 34°43' W 076°40'0 0.0
2017-Feb-09 07:31N 34°43' W 076°40'0 0.0
2017-Feb-09 06:19N 34°43' W 076°40'0 0.0
2017-Feb-09 05:31N 34°43' W 076°40'0 0.0
2017-Feb-09 04:31N 34°43' W 076°40'0 0.0
2017-Feb-09 03:31N 34°43' W 076°40'0 0.0
2017-Feb-09 02:31N 34°43' W 076°40'0 0.0
2017-Feb-09 01:31N 34°43' W 076°40'0 0.0
2017-Feb-09 00:31N 34°43' W 076°40'0 0.0
2017-Feb-08 23:31N 34°43' W 076°40'0 0.0
2017-Feb-08 22:31N 34°43' W 076°40'0 0.0
2017-Feb-08 21:31N 34°43' W 076°40'0 0.0
2017-Feb-08 20:31N 34°43' W 076°40'0 0.0
2017-Feb-08 19:31N 34°43' W 076°40'0 0.0
2017-Feb-08 18:31N 34°43' W 076°40'0 0.0
2017-Feb-08 17:31N 34°43' W 076°40'0 0.0
2017-Feb-08 16:31N 34°43' W 076°40'0 0.0
2017-Feb-08 15:31N 34°43' W 076°40'0 0.0
2017-Feb-08 14:31N 34°43' W 076°40'0 0.1
2017-Feb-08 13:31N 34°43' W 076°40'0 0.0
2017-Feb-08 12:31N 34°43' W 076°40'0 0.1
2017-Feb-08 11:31N 34°43' W 076°40'0 0.0
2017-Feb-08 10:31N 34°43' W 076°40'0 0.0
2017-Feb-08 09:31N 34°43' W 076°40'0 0.0
2017-Feb-08 08:31N 34°43' W 076°40'0 0.0
2017-Feb-08 07:31N 34°43' W 076°40'0 0.0
2017-Feb-08 06:31N 34°43' W 076°40'0 0.0
2017-Feb-08 05:28N 34°43' W 076°40'0 0.0
2017-Feb-08 04:31N 34°43' W 076°40'0 0.0
2017-Feb-08 03:31N 34°43' W 076°40'0 0.0
2017-Feb-08 02:31N 34°43' W 076°40'3 2.7
2017-Feb-08 01:33N 34°41' W 076°40'7 6.7
2017-Feb-08 00:33N 34°34' W 076°42'  

Dump ship's entire track history